createdAt,value
2018-07-06T00:00:58.668Z,101112.61
2018-07-06T00:03:24.660Z,101108.28
2018-07-06T00:05:50.664Z,101112.92
2018-07-06T00:08:16.651Z,101109.80
2018-07-06T00:10:42.718Z,101111.93
2018-07-06T00:13:08.687Z,101118.53
2018-07-06T00:15:35.452Z,101116.06
2018-07-06T00:18:01.434Z,101112.91
2018-07-06T00:20:27.448Z,101108.62
2018-07-06T00:22:53.483Z,101118.39
2018-07-06T00:25:19.471Z,101115.73
2018-07-06T00:27:45.448Z,101118.56
2018-07-06T00:30:11.406Z,101120.72
2018-07-06T00:32:37.356Z,101119.05
2018-07-06T00:35:03.333Z,101123.38
2018-07-06T00:37:29.313Z,101121.73
2018-07-06T00:39:55.281Z,101122.21
2018-07-06T00:42:21.249Z,101127.99
2018-07-06T00:44:47.244Z,101127.99
2018-07-06T00:47:13.219Z,101125.20
2018-07-06T00:49:39.193Z,101131.67
2018-07-06T00:52:05.168Z,101128.53
2018-07-06T00:54:31.120Z,101130.00
2018-07-06T00:56:57.097Z,101139.77
2018-07-06T00:59:23.039Z,101134.48
2018-07-06T01:01:49.158Z,101145.11
2018-07-06T01:04:15.063Z,101149.75
2018-07-06T01:06:41.048Z,101151.74
2018-07-06T01:09:07.189Z,101149.59
2018-07-06T01:11:33.150Z,101144.43
2018-07-06T01:13:59.146Z,101146.43
2018-07-06T01:16:25.101Z,101143.10
2018-07-06T01:18:51.072Z,101140.45
2018-07-06T01:21:17.117Z,101150.56
2018-07-06T01:23:43.112Z,101143.92
2018-07-06T01:26:09.068Z,101151.70
2018-07-06T01:28:35.042Z,101152.70
2018-07-06T01:31:01.033Z,101155.38
2018-07-06T01:33:26.989Z,101155.86
2018-07-06T01:35:52.964Z,101152.70
2018-07-06T01:38:18.948Z,101160.67
2018-07-06T01:40:44.943Z,101156.34
2018-07-06T01:43:10.935Z,101158.66
2018-07-06T01:45:36.906Z,101154.04
2018-07-06T01:48:02.903Z,101163.98
2018-07-06T01:50:29.208Z,101161.65
2018-07-06T01:52:55.179Z,101162.83
2018-07-06T01:55:21.229Z,101163.95
2018-07-06T01:57:47.217Z,101173.42
2018-07-06T02:00:13.178Z,101175.22
2018-07-06T02:02:39.241Z,101174.59
2018-07-06T02:05:05.224Z,101177.23
2018-07-06T02:07:31.201Z,101184.37
2018-07-06T02:09:57.540Z,101182.21
2018-07-06T02:12:23.547Z,101186.52
2018-07-06T02:14:49.478Z,101188.20
2018-07-06T02:17:15.441Z,101191.83
2018-07-06T02:19:41.385Z,101191.03
2018-07-06T02:22:07.464Z,101191.67
2018-07-06T02:24:33.448Z,101194.69
2018-07-06T02:26:59.422Z,101194.66
2018-07-06T02:29:25.436Z,101196.14
2018-07-06T02:31:51.496Z,101193.81
2018-07-06T02:34:17.477Z,101196.97
2018-07-06T02:36:43.446Z,101199.47
2018-07-06T02:39:09.405Z,101198.11
2018-07-06T02:41:35.387Z,101202.25
2018-07-06T02:44:01.382Z,101202.42
2018-07-06T02:46:27.365Z,101205.08
2018-07-06T02:48:53.315Z,101213.72
2018-07-06T02:51:19.294Z,101212.69
2018-07-06T02:53:45.280Z,101216.34
2018-07-06T02:56:11.246Z,101216.20
2018-07-06T02:58:37.220Z,101214.55
2018-07-06T03:01:03.178Z,101213.04
2018-07-06T03:03:29.190Z,101215.16
2018-07-06T03:05:55.158Z,101214.69
2018-07-06T03:08:21.161Z,101217.81
2018-07-06T03:10:47.113Z,101223.01
2018-07-06T03:13:13.168Z,101216.98
2018-07-06T03:15:39.138Z,101219.50
2018-07-06T03:18:06.133Z,101216.28
2018-07-06T03:20:32.098Z,101222.23
2018-07-06T03:22:58.084Z,101224.59
2018-07-06T03:25:24.066Z,101224.27
2018-07-06T03:27:50.040Z,101222.06
2018-07-06T03:30:16.006Z,101228.46
2018-07-06T03:32:41.962Z,101225.45
2018-07-06T03:35:07.926Z,101226.78
2018-07-06T03:37:34.824Z,101229.08
2018-07-06T03:40:00.792Z,101227.11
2018-07-06T03:42:27.071Z,101234.50
2018-07-06T03:44:53.058Z,101232.56
2018-07-06T03:47:19.030Z,101235.33
2018-07-06T03:49:45.053Z,101238.05
2018-07-06T03:52:11.025Z,101243.97
2018-07-06T03:54:37.006Z,101242.17
2018-07-06T03:57:02.961Z,101246.87
2018-07-06T03:59:28.919Z,101247.91
2018-07-06T04:01:54.914Z,101241.96
2018-07-06T04:04:20.902Z,101253.08
2018-07-06T04:06:46.869Z,101252.46
2018-07-06T04:09:12.930Z,101247.76
2018-07-06T04:11:38.898Z,101247.25
2018-07-06T04:14:04.876Z,101257.41
2018-07-06T04:16:30.841Z,101261.03
2018-07-06T04:18:56.848Z,101264.66
2018-07-06T04:21:22.816Z,101261.50
2018-07-06T04:23:48.808Z,101265.80
2018-07-06T04:26:14.786Z,101269.00
2018-07-06T04:28:40.777Z,101272.41
2018-07-06T04:31:06.732Z,101274.48
2018-07-06T04:33:32.705Z,101277.06
2018-07-06T04:35:58.679Z,101281.59
2018-07-06T04:38:24.648Z,101287.80
2018-07-06T04:40:50.629Z,101288.63
2018-07-06T04:43:16.589Z,101291.77
2018-07-06T04:45:42.588Z,101294.03
2018-07-06T04:48:08.587Z,101298.08
2018-07-06T04:50:34.637Z,101299.77
2018-07-06T04:53:00.718Z,101307.05
2018-07-06T04:55:26.692Z,101305.29
2018-07-06T04:57:52.672Z,101307.48
2018-07-06T05:00:18.634Z,101309.13
2018-07-06T05:02:44.609Z,101312.10
2018-07-06T05:05:10.586Z,101313.57
2018-07-06T05:07:36.604Z,101310.36
2018-07-06T05:10:02.595Z,101317.04
2018-07-06T05:12:28.557Z,101319.02
2018-07-06T05:14:54.548Z,101315.63
2018-07-06T05:17:20.868Z,101319.97
2018-07-06T05:19:46.835Z,101318.09
2018-07-06T05:22:12.821Z,101324.77
2018-07-06T05:24:38.793Z,101332.88
2018-07-06T05:27:04.756Z,101325.95
2018-07-06T05:29:30.774Z,101329.13
2018-07-06T05:31:56.749Z,101328.81
2018-07-06T05:34:22.723Z,101336.45
2018-07-06T05:36:48.706Z,101334.47
2018-07-06T05:39:14.682Z,101333.29
2018-07-06T05:41:40.676Z,101335.34
2018-07-06T05:44:06.771Z,101338.27
2018-07-06T05:46:33.839Z,101340.82
2018-07-06T05:49:00.937Z,101341.46
2018-07-06T05:51:27.018Z,101352.41
2018-07-06T05:53:53.055Z,101352.77
2018-07-06T05:56:18.969Z,101351.03
2018-07-06T05:58:44.923Z,101361.38
2018-07-06T06:01:10.918Z,101360.47
2018-07-06T06:03:36.888Z,101368.14
2018-07-06T06:06:02.851Z,101368.55
2018-07-06T06:08:28.816Z,101374.00
2018-07-06T06:10:54.858Z,101376.02
2018-07-06T06:13:20.857Z,101380.31
2018-07-06T06:15:46.822Z,101388.50
2018-07-06T06:18:12.804Z,101392.03
2018-07-06T06:20:38.758Z,101397.38
2018-07-06T06:23:04.736Z,101396.27
2018-07-06T06:25:30.749Z,101393.23
2018-07-06T06:27:56.725Z,101398.95
2018-07-06T06:30:23.279Z,101400.58
2018-07-06T06:32:49.262Z,101398.71
2018-07-06T06:35:15.242Z,101401.14
2018-07-06T06:37:41.249Z,101407.45
2018-07-06T06:40:07.240Z,101396.98
2018-07-06T06:42:33.324Z,101407.85
2018-07-06T06:44:59.363Z,101404.56
2018-07-06T06:47:25.330Z,101409.73
2018-07-06T06:49:51.335Z,101413.34
2018-07-06T06:52:17.308Z,101417.20
2018-07-06T06:54:43.269Z,101414.55
2018-07-06T06:57:09.265Z,101423.46
2018-07-06T06:59:35.225Z,101418.84
2018-07-06T07:02:01.177Z,101410.57
2018-07-06T07:04:27.132Z,101416.23
2018-07-06T07:06:53.101Z,101418.25
2018-07-06T07:09:19.073Z,101419.72
2018-07-06T07:11:45.047Z,101422.52
2018-07-06T07:14:11.084Z,101425.48
2018-07-06T07:16:36.993Z,101420.81
2018-07-06T07:19:02.964Z,101420.22
2018-07-06T07:21:28.954Z,101420.22
2018-07-06T07:23:54.925Z,101419.02
2018-07-06T07:26:20.883Z,101424.88
2018-07-06T07:28:46.865Z,101421.86
2018-07-06T07:31:12.839Z,101428.00
2018-07-06T07:33:39.546Z,101431.80
2018-07-06T07:36:05.557Z,101429.95
2018-07-06T07:38:31.543Z,101433.86
2018-07-06T07:40:57.513Z,101436.78
2018-07-06T07:43:23.651Z,101435.19
2018-07-06T07:45:49.640Z,101440.55
2018-07-06T07:48:15.643Z,101438.48
2018-07-06T07:50:41.596Z,101436.84
2018-07-06T07:53:07.570Z,101438.86
2018-07-06T07:55:33.549Z,101447.04
2018-07-06T07:57:59.526Z,101447.53
2018-07-06T08:00:25.627Z,101450.57
2018-07-06T08:02:51.488Z,101447.39
2018-07-06T08:05:17.453Z,101450.87
2018-07-06T08:07:43.449Z,101453.36
2018-07-06T08:10:10.084Z,101450.87
2018-07-06T08:12:36.054Z,101462.38
2018-07-06T08:15:02.019Z,101463.20
2018-07-06T08:17:27.996Z,101469.98
2018-07-06T08:19:53.950Z,101469.20
2018-07-06T08:22:19.910Z,101478.63
2018-07-06T08:24:46.124Z,101485.19
2018-07-06T08:27:12.098Z,101476.02
2018-07-06T08:29:38.085Z,101477.84
2018-07-06T08:32:04.054Z,101475.97
2018-07-06T08:34:30.045Z,101477.80
2018-07-06T08:36:56.049Z,101481.16
2018-07-06T08:39:22.042Z,101482.84
2018-07-06T08:41:48.027Z,101484.44
2018-07-06T08:44:14.016Z,101490.08
2018-07-06T08:46:39.968Z,101487.02
2018-07-06T08:49:05.932Z,101488.53
2018-07-06T08:51:31.878Z,101491.64
2018-07-06T08:53:57.836Z,101491.14
2018-07-06T08:56:23.823Z,101497.63
2018-07-06T08:58:49.799Z,101498.08
2018-07-06T09:01:15.809Z,101498.41
2018-07-06T09:03:41.775Z,101492.47
2018-07-06T09:06:07.849Z,101501.56
2018-07-06T09:08:33.807Z,101501.06
2018-07-06T09:10:59.778Z,101504.72
2018-07-06T09:13:25.776Z,101503.20
2018-07-06T09:15:51.756Z,101504.41
2018-07-06T09:18:17.725Z,101507.87
2018-07-06T09:20:43.708Z,101502.56
2018-07-06T09:23:09.680Z,101505.17
2018-07-06T09:25:35.752Z,101505.72
2018-07-06T09:28:01.627Z,101503.77
2018-07-06T09:30:27.640Z,101508.75
2018-07-06T09:32:53.611Z,101511.05
2018-07-06T09:35:19.591Z,101508.02
2018-07-06T09:37:45.562Z,101507.75
2018-07-06T09:40:11.528Z,101509.89
2018-07-06T09:42:37.492Z,101515.39
2018-07-06T09:45:03.523Z,101515.34
2018-07-06T09:47:29.446Z,101515.02
2018-07-06T09:49:55.423Z,101509.89
2018-07-06T09:52:21.403Z,101510.72
2018-07-06T09:54:47.391Z,101507.33
2018-07-06T09:57:13.355Z,101508.84
2018-07-06T09:59:39.361Z,101514.66
2018-07-06T10:02:05.335Z,101507.67
2018-07-06T10:04:31.385Z,101505.52
2018-07-06T10:06:57.352Z,101505.53
2018-07-06T10:09:23.321Z,101506.17
2018-07-06T10:11:49.304Z,101504.34
2018-07-06T10:14:15.440Z,101511.09
2018-07-06T10:16:41.421Z,101513.78
2018-07-06T10:19:07.411Z,101505.39
2018-07-06T10:21:33.384Z,101512.11
2018-07-06T10:23:59.361Z,101505.34
2018-07-06T10:26:25.307Z,101507.11
2018-07-06T10:28:51.302Z,101505.73
2018-07-06T10:31:17.281Z,101502.13
2018-07-06T10:33:43.364Z,101502.48
2018-07-06T10:36:09.248Z,101495.88
2018-07-06T10:38:35.213Z,101507.16
2018-07-06T10:41:01.176Z,101500.48
2018-07-06T10:43:27.149Z,101502.18
2018-07-06T10:45:53.122Z,101500.98
2018-07-06T10:48:19.089Z,101504.70
2018-07-06T10:50:45.070Z,101503.46
2018-07-06T10:53:11.052Z,101504.64
2018-07-06T10:55:37.040Z,101506.02
2018-07-06T10:58:03.032Z,101503.00
2018-07-06T11:00:29.010Z,101499.38
2018-07-06T11:02:55.026Z,101504.48
2018-07-06T11:05:21.015Z,101506.04
2018-07-06T11:07:47.075Z,101501.27
2018-07-06T11:10:13.041Z,101498.20
2018-07-06T11:12:39.041Z,101497.05
2018-07-06T11:15:05.039Z,101494.90
2018-07-06T11:17:31.037Z,101497.87
2018-07-06T11:19:57.027Z,101496.74
2018-07-06T11:22:22.984Z,101499.05
2018-07-06T11:24:48.987Z,101493.95
2018-07-06T11:27:14.979Z,101499.14
2018-07-06T11:29:41.025Z,101492.31
2018-07-06T11:32:07.038Z,101494.17
2018-07-06T11:34:33.037Z,101492.39
2018-07-06T11:36:58.997Z,101485.56
2018-07-06T11:39:25.402Z,101481.54
2018-07-06T11:41:51.389Z,101483.17
2018-07-06T11:44:17.339Z,101481.28
2018-07-06T11:46:43.329Z,101482.36
2018-07-06T11:49:09.314Z,101486.30
2018-07-06T11:51:35.272Z,101487.63
2018-07-06T11:54:01.280Z,101484.02
2018-07-06T11:56:27.247Z,101483.19
2018-07-06T11:58:53.211Z,101485.48
2018-07-06T12:01:19.180Z,101486.45
2018-07-06T12:03:45.134Z,101484.89
2018-07-06T12:06:11.112Z,101490.89
2018-07-06T12:08:37.082Z,101487.72
2018-07-06T12:11:03.058Z,101489.56
2018-07-06T12:13:29.011Z,101493.17
2018-07-06T12:15:54.976Z,101492.12
2018-07-06T12:18:20.945Z,101490.75
2018-07-06T12:20:46.945Z,101490.02
2018-07-06T12:23:12.921Z,101479.75
2018-07-06T12:25:38.893Z,101490.87
2018-07-06T12:28:04.882Z,101478.94
2018-07-06T12:30:30.839Z,101480.72
2018-07-06T12:32:56.864Z,101482.50
2018-07-06T12:35:23.870Z,101485.34
2018-07-06T12:37:49.831Z,101477.29
2018-07-06T12:40:15.808Z,101478.94
2018-07-06T12:42:41.815Z,101480.58
2018-07-06T12:45:07.813Z,101483.14
2018-07-06T12:47:33.777Z,101482.64
2018-07-06T12:49:59.737Z,101484.25
2018-07-06T12:52:25.731Z,101477.37
2018-07-06T12:54:51.686Z,101478.53
2018-07-06T12:57:17.693Z,101477.88
2018-07-06T12:59:43.666Z,101473.25
2018-07-06T13:02:09.669Z,101479.39
2018-07-06T13:04:35.636Z,101481.13
2018-07-06T13:07:01.594Z,101476.45
2018-07-06T13:09:27.560Z,101476.64
2018-07-06T13:11:53.539Z,101469.41
2018-07-06T13:14:19.601Z,101473.89
2018-07-06T13:16:45.558Z,101477.87
2018-07-06T13:19:11.521Z,101479.98
2018-07-06T13:21:37.480Z,101480.48
2018-07-06T13:24:03.466Z,101479.34
2018-07-06T13:26:29.417Z,101477.00
2018-07-06T13:28:55.388Z,101476.83
2018-07-06T13:31:21.352Z,101480.53
2018-07-06T13:33:47.361Z,101475.36
2018-07-06T13:36:13.319Z,101481.49
2018-07-06T13:38:39.278Z,101473.84
2018-07-06T13:41:05.238Z,101474.07
2018-07-06T13:43:31.238Z,101466.94
2018-07-06T13:45:57.217Z,101471.23
2018-07-06T13:48:23.185Z,101475.40
2018-07-06T13:50:49.166Z,101470.09
2018-07-06T13:53:15.122Z,101470.73
2018-07-06T13:55:41.069Z,101469.22
2018-07-06T13:58:07.052Z,101473.07
2018-07-06T14:00:33.039Z,101466.76
2018-07-06T14:02:59.023Z,101469.23
2018-07-06T14:05:26.025Z,101466.11
2018-07-06T14:07:51.998Z,101467.72
2018-07-06T14:10:18.001Z,101460.89
2018-07-06T14:12:43.966Z,101460.25
2018-07-06T14:15:09.946Z,101456.95
2018-07-06T14:17:35.954Z,101462.72
2018-07-06T14:20:02.011Z,101467.25
2018-07-06T14:22:27.996Z,101465.73
2018-07-06T14:24:54.021Z,101464.23
2018-07-06T14:27:20.066Z,101468.59
2018-07-06T14:29:46.017Z,101463.59
2018-07-06T14:32:12.014Z,101459.75
2018-07-06T14:34:37.969Z,101463.59
2018-07-06T14:37:03.929Z,101471.10
2018-07-06T14:39:29.900Z,101469.23
2018-07-06T14:41:55.871Z,101466.11
2018-07-06T14:44:21.866Z,101460.11
2018-07-06T14:46:47.828Z,101465.42
2018-07-06T14:49:13.815Z,101473.03
2018-07-06T14:51:39.781Z,101474.67
2018-07-06T14:54:05.801Z,101476.83
2018-07-06T14:56:33.882Z,101476.64
2018-07-06T14:58:59.878Z,101475.48
2018-07-06T15:01:25.838Z,101479.94
2018-07-06T15:03:51.844Z,101482.13
2018-07-06T15:06:17.811Z,101485.25
2018-07-06T15:08:43.788Z,101487.45
2018-07-06T15:11:09.826Z,101486.25
2018-07-06T15:13:35.861Z,101488.27
2018-07-06T15:16:01.873Z,101487.31
2018-07-06T15:18:28.122Z,101485.80
2018-07-06T15:20:54.081Z,101492.94
2018-07-06T15:23:20.041Z,101487.49
2018-07-06T15:25:46.053Z,101491.66
2018-07-06T15:28:11.997Z,101487.63
2018-07-06T15:30:37.975Z,101489.96
2018-07-06T15:33:04.052Z,101487.67
2018-07-06T15:35:30.031Z,101488.67
2018-07-06T15:37:56.042Z,101490.47
2018-07-06T15:40:22.062Z,101479.95
2018-07-06T15:42:48.021Z,101486.30
2018-07-06T15:45:14.061Z,101480.03
2018-07-06T15:47:40.038Z,101477.92
2018-07-06T15:50:06.129Z,101481.68
2018-07-06T15:52:32.105Z,101483.84
2018-07-06T15:54:58.072Z,101480.35
2018-07-06T15:57:24.073Z,101476.23
2018-07-06T15:59:50.099Z,101479.06
2018-07-06T16:02:16.110Z,101477.09
2018-07-06T16:04:42.124Z,101472.47
2018-07-06T16:07:08.115Z,101476.09
2018-07-06T16:09:34.104Z,101476.28
2018-07-06T16:12:00.124Z,101471.78
2018-07-06T16:14:26.104Z,101475.77
2018-07-06T16:16:52.072Z,101472.75
2018-07-06T16:19:18.060Z,101465.61
2018-07-06T16:21:44.061Z,101467.72
2018-07-06T16:24:10.057Z,101465.42
2018-07-06T16:26:36.058Z,101464.77
2018-07-06T16:29:02.032Z,101467.08
2018-07-06T16:31:28.060Z,101467.44
2018-07-06T16:33:54.038Z,101463.28
2018-07-06T16:36:20.057Z,101461.45
2018-07-06T16:38:45.993Z,101465.43
2018-07-06T16:41:11.985Z,101463.17
2018-07-06T16:43:38.231Z,101461.84
2018-07-06T16:46:04.195Z,101465.97
2018-07-06T16:48:30.197Z,101460.80
2018-07-06T16:50:56.179Z,101465.64
2018-07-06T16:53:22.171Z,101464.10
2018-07-06T16:55:48.134Z,101466.80
2018-07-06T16:58:14.159Z,101466.76
2018-07-06T17:00:40.129Z,101464.77
2018-07-06T17:03:06.104Z,101471.88
2018-07-06T17:05:32.072Z,101470.09
2018-07-06T17:07:58.069Z,101465.94
2018-07-06T17:10:24.064Z,101472.75
2018-07-06T17:12:50.014Z,101471.28
2018-07-06T17:15:16.039Z,101466.94
2018-07-06T17:17:41.998Z,101470.74
2018-07-06T17:20:08.049Z,101466.29
2018-07-06T17:22:34.021Z,101460.80
2018-07-06T17:24:59.994Z,101469.09
2018-07-06T17:27:25.990Z,101464.79
2018-07-06T17:29:52.001Z,101468.31
2018-07-06T17:32:17.981Z,101460.66
2018-07-06T17:34:43.957Z,101468.95
2018-07-06T17:37:09.955Z,101470.09
2018-07-06T17:39:35.916Z,101471.60
2018-07-06T17:42:01.910Z,101466.47
2018-07-06T17:44:27.895Z,101471.42
2018-07-06T17:46:53.900Z,101467.62
2018-07-06T17:49:19.880Z,101469.91
2018-07-06T17:51:45.879Z,101468.59
2018-07-06T17:54:11.876Z,101464.28
2018-07-06T17:56:37.926Z,101470.73
2018-07-06T17:59:03.888Z,101470.38
2018-07-06T18:01:29.890Z,101470.55
2018-07-06T18:03:55.887Z,101470.73
2018-07-06T18:06:21.877Z,101477.74
2018-07-06T18:08:47.846Z,101478.61
2018-07-06T18:11:13.880Z,101474.77
2018-07-06T18:13:39.877Z,101476.92
2018-07-06T18:16:05.880Z,101475.41
2018-07-06T18:18:31.866Z,101474.73
2018-07-06T18:20:57.828Z,101475.08
2018-07-06T18:23:23.896Z,101469.23
2018-07-06T18:25:49.802Z,101471.05
2018-07-06T18:28:15.806Z,101473.22
2018-07-06T18:30:41.859Z,101474.08
2018-07-06T18:33:07.862Z,101465.94
2018-07-06T18:35:33.821Z,101470.41
2018-07-06T18:37:59.850Z,101471.05
2018-07-06T18:40:25.826Z,101470.91
2018-07-06T18:42:51.804Z,101470.09
2018-07-06T18:45:17.773Z,101473.03
2018-07-06T18:47:43.758Z,101466.75
2018-07-06T18:50:09.764Z,101471.74
2018-07-06T18:52:35.738Z,101476.45
2018-07-06T18:55:01.712Z,101471.78
2018-07-06T18:57:27.876Z,101470.41
2018-07-06T18:59:53.886Z,101475.08
2018-07-06T19:02:19.855Z,101479.75
2018-07-06T19:04:45.869Z,101475.41
2018-07-06T19:07:12.905Z,101475.95
2018-07-06T19:09:38.960Z,101484.37
2018-07-06T19:12:04.952Z,101485.06
2018-07-06T19:14:31.095Z,101493.53
2018-07-06T19:16:57.079Z,101494.69
2018-07-06T19:19:23.041Z,101492.67
2018-07-06T19:21:49.037Z,101491.34
2018-07-06T19:24:15.046Z,101496.52
2018-07-06T19:26:41.023Z,101493.67
2018-07-06T19:29:07.004Z,101502.14
2018-07-06T19:31:32.970Z,101502.97
2018-07-06T19:33:58.996Z,101508.23
2018-07-06T19:36:24.972Z,101505.39
2018-07-06T19:38:51.002Z,101505.06
2018-07-06T19:41:16.993Z,101511.06
2018-07-06T19:43:43.039Z,101519.36
2018-07-06T19:46:09.036Z,101524.98
2018-07-06T19:48:35.050Z,101525.00
2018-07-06T19:51:00.993Z,101531.31
2018-07-06T19:53:26.967Z,101528.98
2018-07-06T19:55:52.956Z,101537.95
2018-07-06T19:58:18.938Z,101536.95
2018-07-06T20:00:44.898Z,101540.94
2018-07-06T20:03:10.884Z,101546.93
2018-07-06T20:05:36.845Z,101555.40
2018-07-06T20:08:02.887Z,101561.02
2018-07-06T20:10:28.815Z,101565.38
2018-07-06T20:12:54.804Z,101569.95
2018-07-06T20:15:20.791Z,101566.97
2018-07-06T20:17:46.756Z,101566.34
2018-07-06T20:20:12.735Z,101570.81
2018-07-06T20:22:38.740Z,101569.95
2018-07-06T20:25:04.701Z,101569.67
2018-07-06T20:27:30.692Z,101571.83
2018-07-06T20:29:56.657Z,101571.97
2018-07-06T20:32:22.653Z,101569.31
2018-07-06T20:34:48.656Z,101566.40
2018-07-06T20:37:14.653Z,101570.55
2018-07-06T20:39:40.628Z,101572.98
2018-07-06T20:42:06.621Z,101577.47
2018-07-06T20:44:32.774Z,101576.31
2018-07-06T20:46:58.758Z,101580.95
2018-07-06T20:49:24.719Z,101582.41
2018-07-06T20:51:50.734Z,101583.98
2018-07-06T20:54:16.743Z,101588.78
2018-07-06T20:56:42.780Z,101579.98
2018-07-06T20:59:08.807Z,101588.72
2018-07-06T21:01:34.761Z,101585.70
2018-07-06T21:04:00.786Z,101588.03
2018-07-06T21:06:26.792Z,101589.87
2018-07-06T21:08:52.812Z,101590.56
2018-07-06T21:11:18.860Z,101585.94
2018-07-06T21:13:44.827Z,101582.78
2018-07-06T21:16:10.878Z,101586.77
2018-07-06T21:18:37.809Z,101590.30
2018-07-06T21:21:03.785Z,101591.25
2018-07-06T21:23:29.774Z,101591.58
2018-07-06T21:25:55.752Z,101590.73
2018-07-06T21:28:21.830Z,101597.70
2018-07-06T21:30:47.773Z,101594.73
2018-07-06T21:33:14.775Z,101599.72
2018-07-06T21:35:40.769Z,101596.56
2018-07-06T21:38:06.753Z,101594.98
2018-07-06T21:40:32.735Z,101595.16
2018-07-06T21:42:58.726Z,101604.53
2018-07-06T21:45:24.705Z,101605.15
2018-07-06T21:47:50.695Z,101596.99
2018-07-06T21:50:16.680Z,101606.80
2018-07-06T21:52:42.651Z,101605.81
2018-07-06T21:55:08.633Z,101606.67
2018-07-06T21:57:35.694Z,101614.02
2018-07-06T22:00:01.707Z,101611.17
2018-07-06T22:02:27.765Z,101614.70
2018-07-06T22:04:53.799Z,101614.70
2018-07-06T22:07:19.772Z,101609.28
2018-07-06T22:09:45.797Z,101611.60
2018-07-06T22:12:11.795Z,101606.16
2018-07-06T22:14:37.777Z,101606.75
2018-07-06T22:17:03.812Z,101612.45
2018-07-06T22:19:29.833Z,101614.97
2018-07-06T22:21:55.940Z,101620.34
2018-07-06T22:24:21.915Z,101619.28
2018-07-06T22:26:47.890Z,101622.03
2018-07-06T22:29:13.894Z,101625.91
2018-07-06T22:31:39.896Z,101616.81
2018-07-06T22:34:06.030Z,101617.17
2018-07-06T22:36:31.989Z,101620.97
2018-07-06T22:38:58.181Z,101623.23
2018-07-06T22:41:24.201Z,101626.20
2018-07-06T22:43:50.151Z,101620.90
2018-07-06T22:46:16.124Z,101622.50
2018-07-06T22:48:42.073Z,101625.97
2018-07-06T22:51:08.032Z,101621.30
2018-07-06T22:53:34.000Z,101621.98
2018-07-06T22:56:00.003Z,101619.40
2018-07-06T22:58:26.026Z,101620.26
2018-07-06T23:00:51.928Z,101622.03
2018-07-06T23:03:17.881Z,101622.17
2018-07-06T23:05:43.844Z,101621.66
2018-07-06T23:08:09.903Z,101619.69
2018-07-06T23:10:35.892Z,101616.86
2018-07-06T23:13:01.897Z,101620.02
2018-07-06T23:15:27.852Z,101625.47
2018-07-06T23:17:53.861Z,101623.17
2018-07-06T23:20:19.848Z,101624.06
2018-07-06T23:22:45.832Z,101628.10
2018-07-06T23:25:11.843Z,101632.42
2018-07-06T23:27:37.851Z,101624.31
2018-07-06T23:30:03.832Z,101619.77
2018-07-06T23:32:29.835Z,101624.26
2018-07-06T23:34:55.816Z,101622.30
2018-07-06T23:37:21.809Z,101620.09
2018-07-06T23:39:47.809Z,101621.27
2018-07-06T23:42:13.770Z,101626.41
2018-07-06T23:44:39.764Z,101623.06
2018-07-06T23:47:05.724Z,101626.03
2018-07-06T23:49:31.797Z,101628.94
2018-07-06T23:51:57.774Z,101630.77
2018-07-06T23:54:23.735Z,101629.57
2018-07-06T23:56:49.919Z,101630.41
2018-07-06T23:59:15.944Z,101631.45
